Skip Navigation Links Skip Navigation Links

Current Weather

Quakertown, Penn.

For information only: do not use for flight planning or navigation.
Latest weather
Observation time Monday, June 21, 2021 8:35 PM EDT
Local time Monday, June 21, 2021 9:01 PM EDT
Flight conditions Visual Meteorological Conditions
Winds
Wind direction South-Southwest (200°)
Wind speed 9 mph
Visibility 10 mi.
Sky condition
Ceiling 4,700 ft. broken clouds
Cloud layer broken clouds 4,700 ft.
Cloud layer broken clouds 6,000 ft.
Temperature 73°F
Dewpoint 68°F
Altimeter 29.66 in.Hg
Derived measurements
Relative humidity 83%
Density altitude 2072 ft.
Remarks
Fully automated report.
METAR KUKT 220035Z AUTO 20008KT 10SM BKN047 BKN060 23/20 A2966 RMK A01

Settings

Location code

InnerDrive.Weather 4.0.6770.0 Release CLR 4.0.30319.42000
Copyright ©2018 Inner Drive Technology. All rights reserved. Portions Copyright ©1986-2018 David Braverman.

Find weather

Site navigation


Skip Navigation Links

Place info

Page info

PayPal - The safer, easier way to pay online!

Return home.

Copyright ©2021 Inner Drive Technology. Purveyors of fine, hand-crafted computer software. Page printed 2021-06-22T01:01:21 UTC.